Ida Theresa — V7RQ9 — position and weather

sailwx.info

Track history (hours):
 
Tides and Currents Weather Stations Pressure Air Temp Water Temp Dewpoint Dewpoint Depression Visibility Wind Speed Wind Dir Waves Ship Positions

Ida Theresa

Last reported at 2017-Apr-30 10:10 UTC. Time now 2017-May-01 04:09 UTC.
Position N 31°59' W 124°33'.

Length 121 m; draft 7.3 m.

Type: Ship. MMSI: 538090386.

Date/timePositionNaut miles runAvg speedWind from/ knotsBaromVisibWave heightAir tempDewpointWater temp
2017-Apr-30 10:10N 31°59' W 124°33'210.3
2017-Apr-30 10:00N 31°58' W 124°32'510.1
2017-Apr-30 09:30N 31°53' W 124°28'510.1
2017-Apr-30 09:00N 31°49' W 124°25'510.3
2017-Apr-30 08:30N 31°45' W 124°22'510.5
2017-Apr-30 08:00N 31°40' W 124°18'510.5
2017-Apr-30 07:30N 31°36' W 124°15'510.5
2017-Apr-30 07:00N 31°32' W 124°11'510.5
2017-Apr-30 06:30N 31°27' W 124°08'510.5
2017-Apr-30 06:00N 31°23' W 124°05'510.6
2017-Apr-30 05:30N 31°19' W 124°01'510.2
2017-Apr-30 04:59N 31°14' W 123°58'510.0
2017-Apr-30 04:30N 31°10' W 123°55'5 9.9
2017-Apr-30 04:00N 31°06' W 123°52'5 9.7
2017-Apr-30 03:30N 31°02' W 123°49'5 9.9
2017-Apr-30 03:00N 30°58' W 123°46'5 9.7
2017-Apr-30 02:30N 30°53' W 123°43'5 9.9
2017-Apr-30 02:00N 30°49' W 123°40'510.2
2017-Apr-30 01:31N 30°45' W 123°37'510.0
2017-Apr-30 01:00N 30°41' W 123°33'5 9.6
2017-Apr-30 00:30N 30°37' W 123°30'5 9.6
2017-Apr-30 00:00N 30°33' W 123°27'5 9.6
2017-Apr-29 23:28N 30°29' W 123°24'4 9.4
2017-Apr-29 23:00N 30°25' W 123°21'8 9.5
2017-Apr-29 22:11N 30°19' W 123°15'2 9.3
2017-Apr-29 21:59N 30°17' W 123°14'5 9.5
2017-Apr-29 21:26N 30°13' W 123°10'4 9.7
2017-Apr-29 21:00N 30°10' W 123°07'8 9.7
2017-Apr-29 20:09N 30°04' W 123°01'2 9.7
2017-Apr-29 20:00N 30°02' W 122°60'5 9.5
2017-Apr-29 19:29N 29°59' W 122°57'8 9.3
2017-Apr-29 18:41N 29°53' W 122°51'7 9.3
2017-Apr-29 17:55N 29°48' W 122°46'6 9.1
2017-Apr-29 17:15N 29°43' W 122°41'24 9.0
2017-Apr-29 14:36N 29°27' W 122°21'76 9.2
2017-Apr-29 06:25N 28°48' W 121°06'15 9.2
2017-Apr-29 04:46N 28°41' W 120°51'5 9.1
2017-Apr-29 04:16N 28°39' W 120°47'  
Track history (hours):
 
Tides and Currents Weather Stations Pressure Air Temp Water Temp Dewpoint Dewpoint Depression Visibility Wind Speed Wind Dir Waves Ship Positions

Ida Theresa

Last reported at 2017-Apr-30 10:10 UTC. Time now 2017-May-01 04:09 UTC.
Position N 31°59' W 124°33'.

Length 121 m; draft 7.3 m.

Type: Ship. MMSI: 538090386.

Date/timePositionNaut miles runAvg speedWind from/ knotsBaromVisibWave heightAir tempDewpointWater temp
2017-Apr-30 10:10N 31°59' W 124°33'210.3
2017-Apr-30 10:00N 31°58' W 124°32'510.1
2017-Apr-30 09:30N 31°53' W 124°28'510.1
2017-Apr-30 09:00N 31°49' W 124°25'510.3
2017-Apr-30 08:30N 31°45' W 124°22'510.5
2017-Apr-30 08:00N 31°40' W 124°18'510.5
2017-Apr-30 07:30N 31°36' W 124°15'510.5
2017-Apr-30 07:00N 31°32' W 124°11'510.5
2017-Apr-30 06:30N 31°27' W 124°08'510.5
2017-Apr-30 06:00N 31°23' W 124°05'510.6
2017-Apr-30 05:30N 31°19' W 124°01'510.2
2017-Apr-30 04:59N 31°14' W 123°58'510.0
2017-Apr-30 04:30N 31°10' W 123°55'5 9.9
2017-Apr-30 04:00N 31°06' W 123°52'5 9.7
2017-Apr-30 03:30N 31°02' W 123°49'5 9.9
2017-Apr-30 03:00N 30°58' W 123°46'5 9.7
2017-Apr-30 02:30N 30°53' W 123°43'5 9.9
2017-Apr-30 02:00N 30°49' W 123°40'510.2
2017-Apr-30 01:31N 30°45' W 123°37'510.0
2017-Apr-30 01:00N 30°41' W 123°33'5 9.6
2017-Apr-30 00:30N 30°37' W 123°30'5 9.6
2017-Apr-30 00:00N 30°33' W 123°27'5 9.6
2017-Apr-29 23:28N 30°29' W 123°24'4 9.4
2017-Apr-29 23:00N 30°25' W 123°21'8 9.5
2017-Apr-29 22:11N 30°19' W 123°15'2 9.3
2017-Apr-29 21:59N 30°17' W 123°14'5 9.5
2017-Apr-29 21:26N 30°13' W 123°10'4 9.7
2017-Apr-29 21:00N 30°10' W 123°07'8 9.7
2017-Apr-29 20:09N 30°04' W 123°01'2 9.7
2017-Apr-29 20:00N 30°02' W 122°60'5 9.5
2017-Apr-29 19:29N 29°59' W 122°57'8 9.3
2017-Apr-29 18:41N 29°53' W 122°51'7 9.3
2017-Apr-29 17:55N 29°48' W 122°46'6 9.1
2017-Apr-29 17:15N 29°43' W 122°41'24 9.0
2017-Apr-29 14:36N 29°27' W 122°21'76 9.2
2017-Apr-29 06:25N 28°48' W 121°06'15 9.2
2017-Apr-29 04:46N 28°41' W 120°51'5 9.1
2017-Apr-29 04:16N 28°39' W 120°47'  

Dump ship's entire track history